Time;durP1;ratioP1;P1;durP2;ratioP2;P2;SDS_P1;SDS_P2;PMS_P1;PMS_P2;Temp;Humidity;BMP_temperature;BMP_pressure;BME280_temperature;BME280_humidity;BME280_pressure;Samples;Min_cycle;Max_cycle;Signal;HPM_P1;HPM_P2
2023/06/03 00:00:04;;;;;;;2.95;1.50;;;14.60;99.90;;;;;;5069918;28;20039;-83
2023/06/03 00:02:30;;;;;;;5.45;1.67;;;14.50;99.90;;;;;;5055194;28;20035;-82
2023/06/03 00:04:56;;;;;;;3.42;1.88;;;14.60;99.90;;;;;;5068628;28;20059;-84
2023/06/03 00:07:21;;;;;;;4.03;1.50;;;14.50;99.90;;;;;;5069836;28;20466;-84
2023/06/03 00:09:47;;;;;;;4.10;1.88;;;14.50;99.90;;;;;;5069505;28;20416;-84
2023/06/03 00:12:13;;;;;;;4.40;2.13;;;14.50;99.90;;;;;;5054206;28;20816;-84
2023/06/03 00:14:38;;;;;;;3.83;1.58;;;14.50;99.90;;;;;;5055364;28;20097;-84
2023/06/03 00:17:04;;;;;;;3.28;1.80;;;14.50;99.90;;;;;;5059601;28;20094;-83
2023/06/03 00:19:30;;;;;;;4.32;1.70;;;14.40;99.90;;;;;;5057014;28;20032;-84
2023/06/03 00:21:56;;;;;;;2.35;1.55;;;14.40;99.90;;;;;;5064203;28;22429;-84
2023/06/03 00:24:22;;;;;;;5.03;2.00;;;14.40;99.90;;;;;;5070158;28;20032;-85
2023/06/03 00:26:49;;;;;;;4.93;1.80;;;14.40;99.90;;;;;;5058570;28;20401;-83
2023/06/03 00:29:15;;;;;;;3.90;1.67;;;14.40;99.90;;;;;;5069636;28;20036;-83
2023/06/03 00:31:40;;;;;;;2.83;1.48;;;14.30;99.90;;;;;;5053871;28;20394;-83
2023/06/03 00:34:06;;;;;;;3.22;1.70;;;14.30;99.90;;;;;;5060122;28;20048;-83
2023/06/03 00:36:32;;;;;;;4.07;1.98;;;14.20;99.90;;;;;;5068779;28;20374;-83
2023/06/03 00:38:57;;;;;;;4.78;1.92;;;14.20;99.90;;;;;;5057375;28;20032;-84
2023/06/03 00:41:23;;;;;;;3.80;1.70;;;14.20;99.90;;;;;;5053898;28;20096;-83
2023/06/03 00:43:49;;;;;;;4.65;2.22;;;14.20;99.90;;;;;;5058904;28;20032;-82
2023/06/03 00:46:19;;;;;;;5.03;2.45;;;14.20;99.90;;;;;;5053744;28;20028;-84
2023/06/03 00:48:45;;;;;;;3.45;1.90;;;14.20;99.90;;;;;;5063000;28;20113;-83
2023/06/03 00:51:11;;;;;;;4.13;2.30;;;14.10;99.90;;;;;;5066208;28;20351;-82
2023/06/03 00:53:37;;;;;;;3.97;2.05;;;14.10;99.90;;;;;;5063680;28;20047;-83
2023/06/03 00:56:04;;;;;;;4.22;2.38;;;14.10;99.90;;;;;;5073858;28;20040;-83
2023/06/03 00:58:30;;;;;;;4.72;2.65;;;14.10;99.90;;;;;;5063592;28;20504;-83
2023/06/03 01:00:55;;;;;;;4.95;2.08;;;14.10;99.90;;;;;;5066387;28;20028;-84
2023/06/03 01:03:22;;;;;;;3.85;2.28;;;14.10;99.90;;;;;;5069109;28;20031;-84
2023/06/03 01:06:07;;;;;;;4.10;1.90;;;14.10;99.90;;;;;;5074760;28;20099;-84
2023/06/03 01:08:45;;;;;;;4.32;1.98;;;14.00;99.90;;;;;;5075335;28;20040;-84
2023/06/03 01:11:37;;;;;;;2.80;1.73;;;14.00;99.90;;;;;;5076370;28;20082;-85
2023/06/03 01:14:10;;;;;;;3.90;1.88;;;14.00;99.90;;;;;;5074434;28;20048;-85
2023/06/03 01:16:41;;;;;;;2.53;1.67;;;14.00;99.90;;;;;;5076714;28;20016;-85
2023/06/03 01:19:14;;;;;;;4.82;2.00;;;13.90;99.90;;;;;;5076992;28;20024;-85
2023/06/03 01:21:44;;;;;;;3.30;1.80;;;13.90;99.90;;;;;;5064947;28;20109;-85
2023/06/03 01:24:20;;;;;;;3.22;1.50;;;13.90;99.90;;;;;;5064739;28;21426;-84
2023/06/03 01:26:47;;;;;;;4.30;1.63;;;13.90;99.90;;;;;;5065445;28;20544;-85
2023/06/03 01:29:13;;;;;;;4.00;1.88;;;13.80;99.90;;;;;;5062071;28;20470;-85
2023/06/03 01:31:38;;;;;;;4.95;1.60;;;13.80;99.90;;;;;;5077255;28;20081;-86
2023/06/03 01:34:05;;;;;;;3.20;1.65;;;13.80;99.90;;;;;;5065018;28;20032;-84
2023/06/03 01:36:31;;;;;;;2.80;1.63;;;13.80;99.90;;;;;;5060258;28;20017;-85
2023/06/03 01:38:57;;;;;;;3.60;1.70;;;13.70;99.90;;;;;;5063824;28;20101;-85
2023/06/03 01:41:25;;;;;;;5.47;1.63;;;13.70;99.90;;;;;;5059383;28;20111;-85
2023/06/03 01:43:51;;;;;;;2.60;1.60;;;13.70;99.90;;;;;;5073995;28;20035;-85
2023/06/03 01:46:17;;;;;;;3.70;1.85;;;13.70;99.90;;;;;;5061116;28;20024;-85
2023/06/03 01:48:43;;;;;;;2.75;1.50;;;13.60;99.90;;;;;;5077090;28;20471;-85
2023/06/03 01:51:08;;;;;;;3.72;1.80;;;13.60;99.90;;;;;;5074901;28;20036;-85
2023/06/03 01:53:34;;;;;;;4.53;1.70;;;13.60;99.90;;;;;;5060570;28;20043;-85
2023/06/03 01:56:00;;;;;;;2.88;1.63;;;13.60;99.90;;;;;;5076345;28;20369;-85
2023/06/03 01:58:26;;;;;;;4.38;1.80;;;13.50;99.90;;;;;;5067924;28;20044;-85
2023/06/03 02:00:51;;;;;;;2.78;1.58;;;13.50;99.90;;;;;;5065309;28;20039;-85
2023/06/03 02:03:17;;;;;;;4.32;1.50;;;13.50;99.90;;;;;;5061145;28;20030;-85
2023/06/03 02:05:42;;;;;;;2.90;1.60;;;13.50;99.90;;;;;;5075930;28;20535;-85
2023/06/03 02:08:08;;;;;;;5.13;2.03;;;13.50;99.90;;;;;;5074485;28;20028;-85
2023/06/03 02:10:33;;;;;;;4.40;1.73;;;13.40;99.90;;;;;;5068335;28;20127;-85
2023/06/03 02:12:59;;;;;;;2.72;1.40;;;13.40;99.90;;;;;;5074819;28;20111;-85
2023/06/03 02:15:24;;;;;;;2.78;1.40;;;13.40;99.90;;;;;;5063990;28;20052;-86
2023/06/03 02:17:51;;;;;;;3.65;1.33;;;13.30;99.90;;;;;;5064797;28;20073;-86
2023/06/03 02:20:16;;;;;;;4.18;1.48;;;13.30;99.90;;;;;;5065231;28;20020;-86
2023/06/03 02:22:42;;;;;;;3.10;1.40;;;13.30;99.90;;;;;;5057534;28;20101;-84
2023/06/03 02:25:08;;;;;;;5.32;2.20;;;13.30;99.90;;;;;;5057628;28;20036;-85
2023/06/03 02:27:34;;;;;;;3.28;1.60;;;13.30;99.90;;;;;;5057186;28;20029;-86
2023/06/03 02:30:00;;;;;;;3.65;1.67;;;13.20;99.90;;;;;;5059414;28;20870;-85
2023/06/03 02:32:25;;;;;;;3.92;1.65;;;13.20;99.90;;;;;;5060897;28;20086;-86
2023/06/03 02:34:51;;;;;;;2.15;1.20;;;13.20;99.90;;;;;;5061456;28;20395;-86
2023/06/03 02:37:17;;;;;;;3.45;1.40;;;13.20;99.90;;;;;;5058714;28;20364;-86
2023/06/03 02:39:44;;;;;;;4.13;1.50;;;13.20;99.90;;;;;;5057369;28;20032;-86
2023/06/03 02:42:10;;;;;;;3.65;1.40;;;13.20;99.90;;;;;;5059862;28;20040;-84
2023/06/03 02:44:36;;;;;;;3.15;1.40;;;13.10;99.90;;;;;;5062155;28;20158;-85
2023/06/03 02:47:02;;;;;;;3.20;1.35;;;13.00;99.90;;;;;;5058572;28;20031;-85
2023/06/03 02:49:27;;;;;;;2.78;1.10;;;13.10;99.90;;;;;;5057802;28;20033;-85
2023/06/03 02:51:54;;;;;;;2.22;1.10;;;13.00;99.90;;;;;;5061657;28;20028;-86
2023/06/03 02:54:20;;;;;;;2.20;1.30;;;13.00;99.90;;;;;;5063704;28;20029;-85
2023/06/03 02:56:46;;;;;;;2.95;1.30;;;13.00;99.90;;;;;;5057163;28;20033;-86
2023/06/03 02:59:11;;;;;;;1.65;0.90;;;13.00;99.90;;;;;;5057744;28;20374;-85
2023/06/03 03:01:37;;;;;;;2.00;1.10;;;12.90;99.90;;;;;;5058357;28;20132;-85
2023/06/03 03:04:03;;;;;;;3.25;1.10;;;12.90;99.90;;;;;;5057006;28;20025;-85
2023/06/03 03:06:29;;;;;;;2.00;1.35;;;12.90;99.90;;;;;;5064407;28;20526;-86
2023/06/03 03:08:55;;;;;;;2.70;1.20;;;12.90;99.90;;;;;;5054554;28;20069;-86
2023/06/03 03:11:20;;;;;;;3.40;1.10;;;12.90;99.90;;;;;;5056578;28;20029;-85
2023/06/03 03:13:46;;;;;;;3.58;1.33;;;12.90;99.90;;;;;;5057035;28;20056;-86
2023/06/03 03:16:13;;;;;;;2.35;1.20;;;12.80;99.90;;;;;;5056372;28;20036;-85
2023/06/03 03:18:39;;;;;;;2.00;0.90;;;12.80;99.90;;;;;;5062099;28;20027;-85
2023/06/03 03:21:05;;;;;;;3.30;1.25;;;12.80;99.90;;;;;;5061575;28;20082;-85
2023/06/03 03:23:31;;;;;;;1.77;1.10;;;12.80;99.90;;;;;;5059211;28;20127;-84
2023/06/03 03:25:58;;;;;;;3.55;1.17;;;12.70;99.90;;;;;;5053271;28;20029;-85
2023/06/03 03:28:24;;;;;;;1.67;0.88;;;12.70;99.90;;;;;;5052975;28;20075;-85
2023/06/03 03:30:50;;;;;;;3.28;1.33;;;12.70;99.90;;;;;;5054633;28;20021;-84
2023/06/03 03:33:20;;;;;;;2.85;1.20;;;12.70;99.90;;;;;;5054024;28;20036;-85
2023/06/03 03:35:48;;;;;;;2.08;1.10;;;12.70;99.90;;;;;;5053078;28;20798;-85
2023/06/03 03:38:14;;;;;;;2.58;1.20;;;12.60;99.90;;;;;;5057690;28;20067;-85
2023/06/03 03:40:40;;;;;;;3.13;1.15;;;12.60;99.90;;;;;;5061911;28;20021;-85
2023/06/03 03:43:14;;;;;;;3.00;1.00;;;12.60;99.90;;;;;;5052678;28;20051;-85
2023/06/03 03:45:40;;;;;;;2.28;1.20;;;12.60;99.90;;;;;;5053366;28;20466;-86
2023/06/03 03:48:14;;;;;;;2.63;1.00;;;12.60;99.90;;;;;;5055879;28;20029;-85
2023/06/03 03:50:50;;;;;;;1.58;0.90;;;12.60;99.90;;;;;;5051351;28;20029;-85
2023/06/03 03:53:18;;;;;;;1.48;0.80;;;12.50;99.90;;;;;;5054230;28;20052;-85
2023/06/03 03:55:45;;;;;;;1.75;1.00;;;12.60;99.90;;;;;;5052577;28;20482;-86
2023/06/03 03:58:52;;;;;;;2.78;1.00;;;12.50;99.90;;;;;;5053414;28;20051;-85
2023/06/03 04:01:22;;;;;;;2.88;0.88;;;12.50;99.90;;;;;;5052585;28;20134;-85
2023/06/03 04:03:50;;;;;;;2.08;0.98;;;12.50;99.90;;;;;;5052935;28;20252;-85
2023/06/03 04:06:28;;;;;;;2.10;1.30;;;12.50;99.90;;;;;;5053588;28;20093;-85
2023/06/03 04:08:54;;;;;;;2.58;0.90;;;12.50;99.90;;;;;;5051378;28;20043;-85
2023/06/03 04:11:36;;;;;;;1.85;1.08;;;12.50;99.90;;;;;;5056501;28;20364;-86
2023/06/03 04:14:04;;;;;;;1.50;0.80;;;12.50;99.90;;;;;;5052012;28;20028;-85
2023/06/03 04:17:02;;;;;;;3.95;1.20;;;12.50;99.90;;;;;;5063811;28;20035;-86
2023/06/03 04:19:41;;;;;;;2.28;1.00;;;12.50;99.90;;;;;;5054804;28;20039;-86
2023/06/03 04:22:08;;;;;;;2.17;1.08;;;12.50;99.90;;;;;;5052867;28;20135;-86
2023/06/03 04:24:35;;;;;;;1.30;0.80;;;12.50;99.90;;;;;;5055494;28;20043;-85
2023/06/03 04:27:06;;;;;;;3.17;1.33;;;12.50;99.80;;;;;;5056425;28;20024;-85
2023/06/03 04:29:32;;;;;;;2.67;0.90;;;12.50;99.80;;;;;;5056671;28;20028;-83
2023/06/03 04:31:58;;;;;;;1.60;0.70;;;12.50;99.80;;;;;;5056095;28;20028;-85
2023/06/03 04:34:28;;;;;;;2.70;1.02;;;12.50;99.70;;;;;;5054490;28;20521;-85
2023/06/03 04:36:53;;;;;;;2.05;0.90;;;12.60;99.70;;;;;;5059732;28;20025;-85
2023/06/03 04:39:19;;;;;;;2.00;0.90;;;12.60;99.60;;;;;;5059185;28;20142;-86
2023/06/03 04:41:44;;;;;;;1.63;0.90;;;12.60;99.50;;;;;;5059149;28;20029;-85
2023/06/03 04:44:11;;;;;;;1.95;1.10;;;12.70;99.40;;;;;;5055379;28;20032;-84
2023/06/03 04:46:37;;;;;;;2.63;0.98;;;12.70;99.40;;;;;;5060358;28;21299;-86
2023/06/03 04:49:03;;;;;;;1.83;0.80;;;12.70;99.30;;;;;;5055605;28;20059;-85
2023/06/03 04:51:33;;;;;;;4.07;0.98;;;12.80;99.20;;;;;;5058324;28;20387;-86
2023/06/03 04:54:00;;;;;;;1.88;0.80;;;12.80;99.10;;;;;;5055805;28;20065;-86
2023/06/03 04:56:29;;;;;;;1.83;0.80;;;12.80;99.00;;;;;;5056645;28;20164;-84
2023/06/03 04:59:00;;;;;;;1.42;0.80;;;12.90;99.00;;;;;;5055460;28;20534;-85
2023/06/03 05:01:26;;;;;;;1.85;0.90;;;12.90;98.90;;;;;;5057251;28;20052;-85
2023/06/03 05:03:53;;;;;;;3.40;0.80;;;13.00;98.90;;;;;;5060452;28;20025;-86
2023/06/03 05:06:19;;;;;;;1.00;0.70;;;13.00;98.80;;;;;;5056365;28;20074;-85
2023/06/03 05:08:47;;;;;;;1.52;0.82;;;13.10;98.70;;;;;;5055508;28;20099;-86
2023/06/03 05:11:15;;;;;;;2.15;0.90;;;13.10;98.70;;;;;;5055451;28;20020;-85
2023/06/03 05:13:40;;;;;;;3.25;0.63;;;13.20;98.70;;;;;;5059624;28;20040;-85
2023/06/03 05:16:06;;;;;;;1.63;0.60;;;13.20;98.70;;;;;;5057041;28;20115;-85
2023/06/03 05:18:32;;;;;;;1.45;0.60;;;13.20;98.60;;;;;;5055545;28;20398;-86
2023/06/03 05:20:57;;;;;;;0.98;0.60;;;13.20;98.50;;;;;;5053153;28;20416;-85
2023/06/03 05:23:23;;;;;;;1.70;0.65;;;13.30;98.40;;;;;;5055756;28;20053;-86
2023/06/03 05:25:48;;;;;;;1.08;0.52;;;13.30;98.40;;;;;;5060532;28;20039;-85
2023/06/03 05:28:14;;;;;;;1.63;0.60;;;13.40;98.30;;;;;;5054769;28;20082;-84
2023/06/03 05:30:39;;;;;;;1.23;0.60;;;13.40;98.30;;;;;;5060095;28;20025;-84
2023/06/03 05:33:05;;;;;;;1.40;0.70;;;13.40;98.20;;;;;;5058184;28;20895;-85
2023/06/03 05:35:31;;;;;;;2.10;0.60;;;13.40;98.10;;;;;;5059552;28;20493;-86
2023/06/03 05:37:56;;;;;;;1.33;0.60;;;13.50;98.00;;;;;;5061157;28;20041;-87
2023/06/03 05:40:22;;;;;;;1.73;0.60;;;13.60;98.00;;;;;;5065561;28;20025;-85
2023/06/03 05:42:48;;;;;;;1.52;0.60;;;13.60;97.90;;;;;;5064227;28;20048;-85
2023/06/03 05:45:14;;;;;;;0.85;0.52;;;13.70;97.80;;;;;;5061976;28;20496;-86
2023/06/03 05:47:40;;;;;;;1.25;0.70;;;13.80;97.70;;;;;;5067687;28;20078;-84
2023/06/03 05:50:06;;;;;;;1.45;0.60;;;13.80;97.50;;;;;;5061125;28;20028;-85
2023/06/03 05:52:32;;;;;;;2.75;0.80;;;13.90;97.40;;;;;;5061591;28;20039;-85
2023/06/03 05:54:57;;;;;;;1.27;0.60;;;14.00;97.40;;;;;;5064239;28;20036;-84
2023/06/03 05:57:24;;;;;;;1.67;0.73;;;14.00;97.30;;;;;;5062670;28;20552;-85
2023/06/03 05:59:50;;;;;;;2.00;0.80;;;14.00;97.30;;;;;;5066232;28;20029;-86
2023/06/03 06:02:20;;;;;;;1.77;0.85;;;14.10;97.00;;;;;;5063284;28;20025;-85
2023/06/03 06:04:46;;;;;;;1.08;0.65;;;14.10;97.00;;;;;;5061491;28;20033;-85
2023/06/03 06:07:12;;;;;;;1.90;0.60;;;14.20;97.00;;;;;;5063926;28;20020;-85
2023/06/03 06:09:37;;;;;;;1.30;0.70;;;14.20;96.90;;;;;;5062249;28;20395;-85
2023/06/03 06:12:03;;;;;;;1.58;0.60;;;14.30;96.80;;;;;;5057430;28;20033;-84
2023/06/03 06:14:29;;;;;;;1.42;0.50;;;14.30;96.70;;;;;;5059537;28;20471;-86
2023/06/03 06:16:55;;;;;;;2.67;1.08;;;14.40;96.70;;;;;;5060914;28;20865;-84
2023/06/03 06:19:22;;;;;;;1.67;0.70;;;14.40;96.60;;;;;;5057526;28;20047;-86
2023/06/03 06:21:48;;;;;;;1.75;0.80;;;14.40;96.50;;;;;;5057798;28;20487;-85
2023/06/03 06:24:15;;;;;;;1.65;0.70;;;14.50;96.50;;;;;;5058968;28;20048;-85
2023/06/03 06:26:41;;;;;;;1.27;0.70;;;14.50;96.40;;;;;;5059759;28;20029;-85
2023/06/03 06:29:07;;;;;;;2.05;0.73;;;14.60;96.40;;;;;;5065144;28;20028;-84
2023/06/03 06:31:32;;;;;;;2.45;0.90;;;14.60;96.40;;;;;;5064147;28;20030;-84
2023/06/03 06:34:01;;;;;;;2.20;0.88;;;14.60;96.40;;;;;;5064611;28;20119;-85
2023/06/03 06:36:41;;;;;;;0.82;0.40;;;14.70;96.30;;;;;;5060383;28;20025;-86
2023/06/03 06:39:38;;;;;;;2.03;0.80;;;14.70;96.30;;;;;;5059271;28;20044;-85
2023/06/03 06:42:11;;;;;;;3.67;0.80;;;14.70;96.20;;;;;;5058537;28;20028;-85
2023/06/03 06:44:50;;;;;;;1.38;0.70;;;14.80;96.00;;;;;;5062633;28;20378;-85
2023/06/03 06:47:27;;;;;;;1.38;0.70;;;14.90;96.00;;;;;;5062784;28;20258;-86
2023/06/03 06:49:55;;;;;;;0.70;0.50;;;14.90;95.90;;;;;;5058165;28;20094;-85
2023/06/03 06:52:24;;;;;;;2.13;0.68;;;14.90;95.80;;;;;;5057769;28;20096;-86
2023/06/03 06:54:52;;;;;;;1.35;0.52;;;14.90;95.70;;;;;;5062541;28;20037;-85
2023/06/03 06:57:26;;;;;;;0.88;0.70;;;14.90;95.70;;;;;;5062494;28;20110;-85
2023/06/03 06:59:53;;;;;;;1.35;0.60;;;15.00;95.70;;;;;;5060137;28;20104;-85
2023/06/03 07:02:22;;;;;;;1.42;0.50;;;15.10;95.60;;;;;;5059255;28;20024;-84
2023/06/03 07:04:51;;;;;;;1.58;0.60;;;15.10;95.60;;;;;;5058533;28;20024;-86
2023/06/03 07:07:17;;;;;;;1.13;0.60;;;15.20;95.50;;;;;;5066351;28;20158;-87
2023/06/03 07:09:43;;;;;;;2.53;0.68;;;15.20;95.40;;;;;;5063982;28;20056;-87
2023/06/03 07:12:09;;;;;;;1.00;0.45;;;15.20;95.40;;;;;;5064888;28;20034;-85
2023/06/03 07:14:36;;;;;;;2.45;0.65;;;15.30;95.40;;;;;;5062705;28;20602;-85
2023/06/03 07:17:01;;;;;;;2.22;0.90;;;15.30;95.30;;;;;;5060917;28;20028;-86
2023/06/03 07:19:35;;;;;;;1.23;0.60;;;15.40;95.30;;;;;;5058363;28;20544;-85
2023/06/03 07:22:01;;;;;;;1.27;0.65;;;15.40;95.30;;;;;;5065479;28;20035;-84
2023/06/03 07:24:27;;;;;;;1.80;0.63;;;15.40;95.30;;;;;;5076553;28;20066;-86
2023/06/03 07:26:53;;;;;;;1.63;0.50;;;15.50;95.20;;;;;;5074369;28;20040;-86
2023/06/03 07:29:19;;;;;;;2.88;0.82;;;15.50;95.00;;;;;;5068177;28;20033;-85
2023/06/03 07:31:46;;;;;;;1.98;0.63;;;15.60;95.00;;;;;;5065679;28;20028;-86
2023/06/03 07:34:19;;;;;;;1.35;0.70;;;15.70;95.00;;;;;;5060665;28;20028;-86
2023/06/03 07:36:47;;;;;;;1.73;0.60;;;15.70;95.00;;;;;;5061710;28;20455;-86
2023/06/03 07:39:19;;;;;;;2.38;0.60;;;15.70;94.90;;;;;;5076895;28;20043;-86
2023/06/03 07:41:52;;;;;;;2.08;0.80;;;15.80;94.90;;;;;;5063204;28;20046;-86
2023/06/03 07:44:41;;;;;;;2.53;0.60;;;15.80;94.50;;;;;;5064920;28;20066;-87
2023/06/03 07:47:08;;;;;;;1.48;0.60;;;15.90;94.60;;;;;;5076617;28;20428;-87
2023/06/03 07:49:33;;;;;;;2.03;0.60;;;16.00;94.50;;;;;;5064939;28;20386;-87
2023/06/03 07:51:59;;;;;;;1.25;0.55;;;16.00;94.40;;;;;;5063836;28;20029;-86
2023/06/03 07:54:27;;;;;;;3.13;0.60;;;16.10;94.20;;;;;;5066615;28;20177;-87
2023/06/03 07:56:56;;;;;;;1.02;0.50;;;16.10;94.10;;;;;;5074058;28;20497;-85
2023/06/03 07:59:21;;;;;;;2.30;0.77;;;16.20;93.90;;;;;;5065082;28;20101;-82
2023/06/03 08:01:50;;;;;;;2.60;0.70;;;16.30;93.50;;;;;;5072174;28;20800;-84
2023/06/03 08:04:35;;;;;;;2.03;0.98;;;16.40;93.40;;;;;;5073037;28;20695;-84
2023/06/03 08:07:02;;;;;;;2.08;0.70;;;16.40;93.50;;;;;;5060707;28;20028;-84
2023/06/03 08:09:34;;;;;;;1.23;0.70;;;16.50;93.40;;;;;;5062635;28;20070;-84
2023/06/03 08:12:05;;;;;;;2.40;0.70;;;16.60;93.10;;;;;;5063016;28;20148;-82
2023/06/03 08:14:33;;;;;;;1.10;0.70;;;16.70;93.00;;;;;;5073954;28;20036;-84
2023/06/03 08:17:06;;;;;;;2.63;0.60;;;16.80;93.00;;;;;;5056293;28;20093;-84
2023/06/03 08:19:33;;;;;;;1.85;0.80;;;16.80;93.00;;;;;;5072760;28;20153;-83
2023/06/03 08:21:59;;;;;;;2.95;0.68;;;16.90;92.90;;;;;;5056067;28;20593;-84
2023/06/03 08:24:25;;;;;;;1.02;0.50;;;17.00;92.60;;;;;;5057328;28;20039;-84
2023/06/03 08:26:50;;;;;;;1.52;0.60;;;17.00;92.50;;;;;;5073166;28;20135;-86
2023/06/03 08:29:16;;;;;;;1.63;0.50;;;17.10;92.40;;;;;;5058041;28;20048;-84
2023/06/03 08:31:41;;;;;;;2.28;0.60;;;17.20;92.30;;;;;;5073241;28;20070;-84
2023/06/03 08:34:07;;;;;;;3.95;0.50;;;17.30;92.00;;;;;;5071925;28;20036;-83
2023/06/03 08:36:33;;;;;;;3.20;0.70;;;17.30;91.90;;;;;;5071850;28;20583;-84
2023/06/03 08:38:59;;;;;;;1.35;0.40;;;17.40;91.80;;;;;;5061815;28;20428;-85
2023/06/03 08:41:37;;;;;;;1.30;0.60;;;17.50;91.80;;;;;;5073599;28;20028;-82
2023/06/03 08:44:13;;;;;;;1.27;0.40;;;17.60;91.30;;;;;;5074549;28;20036;-83
2023/06/03 08:47:11;;;;;;;1.63;0.50;;;17.60;91.40;;;;;;5057390;28;20020;-82
2023/06/03 08:49:52;;;;;;;1.73;0.60;;;17.60;90.90;;;;;;5072826;28;20036;-82
2023/06/03 08:52:20;;;;;;;0.73;0.40;;;17.70;91.00;;;;;;5056842;28;20033;-84
2023/06/03 08:54:47;;;;;;;0.70;0.38;;;17.70;91.20;;;;;;5065497;28;20029;-83
2023/06/03 08:57:19;;;;;;;2.10;0.40;;;17.90;91.00;;;;;;5058083;28;20020;-82
2023/06/03 08:59:46;;;;;;;2.05;0.40;;;18.00;90.90;;;;;;5074601;28;20746;-83
2023/06/03 09:02:12;;;;;;;1.20;0.45;;;18.10;90.50;;;;;;5071869;28;20035;-83
2023/06/03 09:04:38;;;;;;;1.02;0.40;;;18.20;90.50;;;;;;5060789;28;20039;-84
2023/06/03 09:07:05;;;;;;;0.70;0.50;;;18.30;90.30;;;;;;5072177;28;20040;-83
2023/06/03 09:09:31;;;;;;;3.45;0.65;;;18.40;89.30;;;;;;5060214;28;20058;-83
2023/06/03 09:11:58;;;;;;;4.47;0.65;;;18.40;88.40;;;;;;5077263;28;20032;-81
2023/06/03 09:14:24;;;;;;;1.27;0.60;;;18.50;88.70;;;;;;5076551;28;20079;-82
2023/06/03 09:16:52;;;;;;;2.55;0.70;;;18.60;88.30;;;;;;5059484;28;20597;-81
2023/06/03 09:19:18;;;;;;;1.33;0.43;;;18.70;88.40;;;;;;5075978;28;20028;-82
2023/06/03 09:21:46;;;;;;;1.33;0.52;;;18.80;88.60;;;;;;5076873;28;20683;-82
2023/06/03 09:24:12;;;;;;;1.63;0.77;;;19.00;88.50;;;;;;5065809;28;20051;-84
2023/06/03 09:26:37;;;;;;;2.45;0.65;;;19.10;88.00;;;;;;5060763;28;20058;-83
2023/06/03 09:29:03;;;;;;;0.68;0.40;;;19.20;88.00;;;;;;5065296;28;20052;-82
2023/06/03 09:31:30;;;;;;;2.30;0.50;;;19.60;88.80;;;;;;5059573;28;20028;-83
2023/06/03 09:33:55;;;;;;;0.60;0.30;;;20.60;87.30;;;;;;5073565;28;20097;-84
2023/06/03 09:36:21;;;;;;;2.53;0.55;;;21.90;86.90;;;;;;5075920;28;20784;-83
2023/06/03 09:38:54;;;;;;;1.65;0.55;;;23.10;85.10;;;;;;5059516;28;20131;-83
2023/06/03 09:41:21;;;;;;;1.90;0.50;;;23.90;84.20;;;;;;5076929;28;20089;-84
2023/06/03 09:44:01;;;;;;;0.93;0.32;;;24.60;83.30;;;;;;5077908;28;20381;-84
2023/06/03 09:46:30;;;;;;;0.90;0.50;;;25.20;82.10;;;;;;5059863;28;20028;-83
2023/06/03 09:49:16;;;;;;;1.60;0.30;;;25.60;81.10;;;;;;5073966;28;20036;-83
2023/06/03 09:51:49;;;;;;;1.33;0.40;;;26.10;80.40;;;;;;5060431;28;20043;-83
2023/06/03 09:54:16;;;;;;;0.47;0.40;;;26.40;80.00;;;;;;5058319;28;20044;-84
2023/06/03 09:56:47;;;;;;;1.67;0.40;;;26.60;78.40;;;;;;5061071;28;20035;-83
2023/06/03 09:59:18;;;;;;;0.75;0.45;;;26.80;77.80;;;;;;5075043;28;20037;-83
2023/06/03 10:01:47;;;;;;;0.32;0.30;;;27.10;77.50;;;;;;5065299;28;20024;-84
2023/06/03 10:04:22;;;;;;;1.10;0.50;;;27.40;76.70;;;;;;5064748;28;20474;-86
2023/06/03 10:07:08;;;;;;;1.48;0.40;;;27.70;76.00;;;;;;5064093;28;20456;-86
2023/06/03 10:09:34;;;;;;;1.35;0.40;;;28.00;74.80;;;;;;5065298;28;20028;-85
2023/06/03 10:11:59;;;;;;;0.70;0.40;;;28.00;73.70;;;;;;5063038;28;20031;-84
2023/06/03 10:14:26;;;;;;;1.08;0.30;;;28.00;72.70;;;;;;5064221;28;20039;-83
2023/06/03 10:17:07;;;;;;;1.02;0.40;;;28.20;72.70;;;;;;5073688;28;20085;-84
2023/06/03 10:19:38;;;;;;;0.73;0.30;;;28.50;71.50;;;;;;5073908;28;20127;-83
2023/06/03 10:22:05;;;;;;;2.65;0.43;;;28.70;71.30;;;;;;5065392;28;20113;-87
2023/06/03 10:24:37;;;;;;;0.63;0.40;;;28.80;69.50;;;;;;5067441;28;20542;-88
2023/06/03 10:27:04;;;;;;;0.68;0.30;;;28.90;69.40;;;;;;5063331;28;20035;-88
2023/06/03 10:29:32;;;;;;;1.60;0.47;;;29.00;68.80;;;;;;5076853;28;20024;-86
2023/06/03 10:32:02;;;;;;;0.47;0.30;;;29.20;68.60;;;;;;5063900;28;20085;-87
2023/06/03 10:34:29;;;;;;;1.13;0.35;;;29.40;67.70;;;;;;5065274;28;20095;-86
2023/06/03 10:37:01;;;;;;;0.50;0.30;;;29.50;67.10;;;;;;5066944;28;20054;-87
2023/06/03 10:39:28;;;;;;;0.60;0.40;;;29.60;67.20;;;;;;5068206;28;20039;-87
2023/06/03 10:41:58;;;;;;;1.23;0.30;;;29.70;64.60;;;;;;5066265;28;20385;-86
2023/06/03 10:44:24;;;;;;;1.00;0.47;;;29.70;64.90;;;;;;5061199;28;20052;-87
2023/06/03 10:46:55;;;;;;;0.70;0.30;;;29.80;64.80;;;;;;5062194;28;20422;-90
2023/06/03 10:49:24;;;;;;;2.20;0.30;;;30.00;64.90;;;;;;5057883;28;20028;-89
2023/06/03 10:51:59;;;;;;;0.40;0.30;;;30.10;64.30;;;;;;5064081;28;20032;-89
2023/06/03 10:54:42;;;;;;;1.38;0.50;;;30.20;64.10;;;;;;5067659;28;20040;-88
2023/06/03 10:57:12;;;;;;;1.15;0.45;;;30.30;63.60;;;;;;5074914;28;20098;-89
2023/06/03 10:59:42;;;;;;;0.70;0.40;;;30.30;63.40;;;;;;5058256;28;20070;-87
2023/06/03 11:02:09;;;;;;;1.60;0.38;;;30.40;63.10;;;;;;5058536;28;20016;-89
2023/06/03 11:04:37;;;;;;;1.65;0.50;;;30.40;62.80;;;;;;5063900;28;20029;-88
2023/06/03 11:07:05;;;;;;;0.45;0.30;;;30.50;61.60;;;;;;5056582;28;20428;-87
2023/06/03 11:09:31;;;;;;;0.40;0.40;;;30.50;62.00;;;;;;5073458;28;20466;-85
2023/06/03 11:12:13;;;;;;;0.75;0.30;;;30.60;61.70;;;;;;5066442;28;20157;-86
2023/06/03 11:14:50;;;;;;;0.80;0.30;;;30.60;62.30;;;;;;5070281;28;20047;-86
2023/06/03 11:17:19;;;;;;;0.45;0.28;;;30.70;62.10;;;;;;5070708;28;20029;-90
2023/06/03 11:19:44;;;;;;;0.70;0.40;;;30.70;61.60;;;;;;5056290;28;20110;-87
2023/06/03 11:22:36;;;;;;;1.38;0.50;;;30.70;60.60;;;;;;5055453;28;20040;-88
2023/06/03 11:25:02;;;;;;;0.38;0.30;;;30.50;59.90;;;;;;5072995;28;20075;-87
2023/06/03 11:27:29;;;;;;;0.40;0.30;;;30.30;59.80;;;;;;5059187;28;20024;-86
2023/06/03 11:29:59;;;;;;;0.90;0.40;;;30.30;60.60;;;;;;5072310;28;20032;-88
2023/06/03 11:32:32;;;;;;;2.17;0.40;;;30.50;60.90;;;;;;5058083;28;20024;-87
2023/06/03 11:35:03;;;;;;;1.05;0.30;;;30.80;60.40;;;;;;5057078;28;20402;-87
2023/06/03 11:37:41;;;;;;;0.60;0.30;;;30.90;60.60;;;;;;5059158;28;21304;-89
2023/06/03 11:40:18;;;;;;;2.80;0.30;;;31.30;60.30;;;;;;5071816;28;20107;-87
2023/06/03 11:42:47;;;;;;;0.90;0.40;;;31.40;59.90;;;;;;5057664;28;20089;-86
2023/06/03 11:45:21;;;;;;;1.00;0.45;;;31.40;59.50;;;;;;5071832;28;20805;-87
2023/06/03 11:48:03;;;;;;;0.63;0.40;;;31.40;59.90;;;;;;5046945;28;20074;-88
2023/06/03 11:50:31;;;;;;;0.57;0.38;;;31.40;59.40;;;;;;5072132;28;20034;-86
2023/06/03 11:52:57;;;;;;;0.93;0.50;;;31.50;60.50;;;;;;5057358;28;20028;-88
2023/06/03 11:55:29;;;;;;;2.40;0.43;;;31.60;59.70;;;;;;5055193;28;20032;-86
2023/06/03 11:58:07;;;;;;;0.60;0.30;;;31.70;59.60;;;;;;5054770;28;20040;-85
2023/06/03 12:00:33;;;;;;;1.00;0.40;;;31.80;58.70;;;;;;5055495;28;20078;-86
2023/06/03 12:02:59;;;;;;;0.98;0.40;;;31.90;58.90;;;;;;5072890;28;20029;-88
2023/06/03 12:05:24;;;;;;;3.05;0.50;;;31.80;58.60;;;;;;5053658;28;20111;-86
2023/06/03 12:07:58;;;;;;;0.95;0.50;;;31.80;58.30;;;;;;5070299;28;20055;-85
2023/06/03 12:10:24;;;;;;;0.57;0.40;;;31.80;58.40;;;;;;5053781;28;20020;-85
2023/06/03 12:12:55;;;;;;;1.67;0.57;;;31.80;58.50;;;;;;5071327;28;20706;-89
2023/06/03 12:15:22;;;;;;;1.88;0.50;;;31.80;57.80;;;;;;5062692;28;20027;-86
2023/06/03 12:17:48;;;;;;;0.85;0.50;;;31.50;57.40;;;;;;5054394;28;20031;-86
2023/06/03 12:20:27;;;;;;;0.85;0.50;;;31.50;57.40;;;;;;5055681;28;20119;-85
2023/06/03 12:22:59;;;;;;;1.80;0.40;;;31.80;57.90;;;;;;5068778;28;20043;-85
2023/06/03 12:25:26;;;;;;;1.10;0.50;;;32.10;57.70;;;;;;5055886;28;20130;-87
2023/06/03 12:27:52;;;;;;;4.45;0.55;;;32.30;57.60;;;;;;5055830;28;20025;-86
2023/06/03 12:30:32;;;;;;;0.82;0.40;;;32.40;57.00;;;;;;5065298;28;20038;-88
2023/06/03 12:32:58;;;;;;;0.55;0.40;;;32.60;56.80;;;;;;5059118;28;20128;-89
2023/06/03 12:35:25;;;;;;;1.00;0.40;;;32.70;57.90;;;;;;5061838;28;20036;-89
2023/06/03 12:38:04;;;;;;;0.40;0.40;;;32.80;57.70;;;;;;5061783;28;20036;-89
2023/06/03 12:40:29;;;;;;;1.20;0.50;;;32.80;57.00;;;;;;5073379;28;20101;-88
2023/06/03 12:42:56;;;;;;;1.50;0.45;;;32.60;57.00;;;;;;5076955;28;20432;-87
2023/06/03 12:45:24;;;;;;;0.85;0.40;;;32.60;56.60;;;;;;5077343;28;20122;-88
2023/06/03 12:47:50;;;;;;;1.08;0.35;;;32.70;56.80;;;;;;5076717;28;20016;-87
2023/06/03 12:50:16;;;;;;;0.60;0.30;;;32.80;56.20;;;;;;5063611;28;20039;-90
2023/06/03 12:52:42;;;;;;;0.70;0.30;;;32.80;56.40;;;;;;5070357;28;20032;-88
2023/06/03 12:55:09;;;;;;;1.75;0.40;;;33.00;56.50;;;;;;5063889;28;20036;-84